createdAt,value
2019-01-11T00:00:15.899Z,101222.97
2019-01-11T00:01:52.674Z,101216.30
2019-01-11T00:03:28.726Z,101221.06
2019-01-11T00:05:05.099Z,101217.04
2019-01-11T00:06:41.118Z,101217.73
2019-01-11T00:08:17.248Z,101219.06
2019-01-11T00:09:53.293Z,101216.83
2019-01-11T00:11:29.334Z,101221.92
2019-01-11T00:13:05.619Z,101216.83
2019-01-11T00:14:41.775Z,101216.73
2019-01-11T00:16:17.848Z,101215.52
2019-01-11T00:17:53.870Z,101213.39
2019-01-11T00:19:29.891Z,101211.86
2019-01-11T00:21:06.133Z,101212.95
2019-01-11T00:22:42.165Z,101207.07
2019-01-11T00:24:18.298Z,101206.61
2019-01-11T00:25:54.350Z,101209.69
2019-01-11T00:27:30.471Z,101204.95
2019-01-11T00:29:07.302Z,101207.31
2019-01-11T00:30:43.322Z,101203.05
2019-01-11T00:32:19.334Z,101200.40
2019-01-11T00:33:55.471Z,101208.27
2019-01-11T00:35:31.572Z,101205.88
2019-01-11T00:37:07.619Z,101203.78
2019-01-11T00:38:43.746Z,101200.77
2019-01-11T00:40:19.807Z,101206.28
2019-01-11T00:41:55.776Z,101201.05
2019-01-11T00:43:31.818Z,101201.55
2019-01-11T00:45:09.140Z,101204.75
2019-01-11T00:46:45.149Z,101205.22
2019-01-11T00:48:21.195Z,101208.60
2019-01-11T00:49:57.262Z,101200.34
2019-01-11T00:51:33.375Z,101212.13
2019-01-11T00:53:09.437Z,101204.70
2019-01-11T00:54:45.504Z,101202.83
2019-01-11T00:56:21.450Z,101201.83
2019-01-11T00:57:57.537Z,101206.87
2019-01-11T00:59:33.580Z,101207.97
2019-01-11T01:01:09.824Z,101212.11
2019-01-11T01:02:45.961Z,101208.82
2019-01-11T01:04:22.006Z,101206.98
2019-01-11T01:05:58.016Z,101213.86
2019-01-11T01:07:34.054Z,101215.50
2019-01-11T01:09:11.054Z,101209.30
2019-01-11T01:10:47.338Z,101209.20
2019-01-11T01:12:23.461Z,101215.50
2019-01-11T01:13:59.629Z,101207.61
2019-01-11T01:15:35.704Z,101208.00
2019-01-11T01:17:11.762Z,101207.63
2019-01-11T01:18:47.785Z,101208.93
2019-01-11T01:20:23.880Z,101202.53
2019-01-11T01:21:59.916Z,101203.70
2019-01-11T01:23:35.941Z,101198.98
2019-01-11T01:25:12.816Z,101209.14
2019-01-11T01:26:48.972Z,101203.95
2019-01-11T01:28:25.108Z,101210.37
2019-01-11T01:30:01.136Z,101204.80
2019-01-11T01:31:37.243Z,101207.36
2019-01-11T01:33:13.290Z,101206.40
2019-01-11T01:34:49.331Z,101210.59
2019-01-11T01:36:25.391Z,101210.80
2019-01-11T01:38:01.478Z,101207.93
2019-01-11T01:39:37.538Z,101202.30
2019-01-11T01:41:13.659Z,101203.08
2019-01-11T01:42:49.709Z,101199.08
2019-01-11T01:44:25.763Z,101200.98
2019-01-11T01:46:01.801Z,101198.09
2019-01-11T01:47:37.809Z,101198.88
2019-01-11T01:49:13.853Z,101189.03
2019-01-11T01:50:49.856Z,101198.03
2019-01-11T01:52:25.893Z,101197.59
2019-01-11T01:54:02.027Z,101193.84
2019-01-11T01:55:38.160Z,101198.19
2019-01-11T01:57:14.224Z,101194.22
2019-01-11T01:58:50.264Z,101197.69
2019-01-11T02:00:26.797Z,101194.80
2019-01-11T02:02:03.004Z,101196.28
2019-01-11T02:03:39.021Z,101196.64
2019-01-11T02:05:15.348Z,101197.43
2019-01-11T02:06:51.459Z,101191.09
2019-01-11T02:08:27.458Z,101195.02
2019-01-11T02:10:03.616Z,101188.75
2019-01-11T02:11:39.700Z,101187.75
2019-01-11T02:13:15.987Z,101187.75
2019-01-11T02:14:52.277Z,101186.37
2019-01-11T02:16:28.306Z,101182.28
2019-01-11T02:18:04.497Z,101182.34
2019-01-11T02:19:40.482Z,101180.78
2019-01-11T02:21:16.613Z,101181.86
2019-01-11T02:22:52.664Z,101181.34
2019-01-11T02:24:28.692Z,101183.78
2019-01-11T02:26:04.815Z,101179.69
2019-01-11T02:27:41.960Z,101179.91
2019-01-11T02:29:18.047Z,101182.16
2019-01-11T02:30:54.109Z,101184.83
2019-01-11T02:32:30.165Z,101178.63
2019-01-11T02:34:06.340Z,101179.87
2019-01-11T02:35:42.371Z,101176.92
2019-01-11T02:37:18.460Z,101173.37
2019-01-11T02:38:54.507Z,101172.23
2019-01-11T02:40:30.460Z,101170.56
2019-01-11T02:42:06.760Z,101164.95
2019-01-11T02:43:42.790Z,101170.39
2019-01-11T02:45:21.095Z,101171.33
2019-01-11T02:46:57.192Z,101171.67
2019-01-11T02:48:33.311Z,101163.03
2019-01-11T02:50:10.526Z,101168.02
2019-01-11T02:51:46.537Z,101165.22
2019-01-11T02:53:22.526Z,101169.42
2019-01-11T02:54:58.556Z,101160.30
2019-01-11T02:56:34.649Z,101163.70
2019-01-11T02:58:10.667Z,101162.70
2019-01-11T02:59:46.700Z,101156.86
2019-01-11T03:01:22.784Z,101155.90
2019-01-11T03:02:58.905Z,101158.29
2019-01-11T03:04:34.837Z,101157.80
2019-01-11T03:06:11.153Z,101154.57
2019-01-11T03:07:48.443Z,101155.91
2019-01-11T03:09:24.467Z,101148.77
2019-01-11T03:11:00.530Z,101149.77
2019-01-11T03:12:36.627Z,101148.18
2019-01-11T03:14:12.558Z,101151.09
2019-01-11T03:15:49.084Z,101141.98
2019-01-11T03:17:25.109Z,101142.93
2019-01-11T03:19:01.135Z,101137.94
2019-01-11T03:20:37.168Z,101137.43
2019-01-11T03:22:13.259Z,101136.78
2019-01-11T03:23:49.307Z,101129.89
2019-01-11T03:25:25.699Z,101126.66
2019-01-11T03:27:01.707Z,101126.45
2019-01-11T03:28:37.729Z,101124.66
2019-01-11T03:30:19.709Z,101124.45
2019-01-11T03:31:55.693Z,101128.85
2019-01-11T03:33:31.659Z,101119.98
2019-01-11T03:35:19.015Z,101115.03
2019-01-11T03:36:55.034Z,101116.28
2019-01-11T03:38:31.048Z,101112.95
2019-01-11T03:40:09.663Z,101117.23
2019-01-11T03:42:06.260Z,101113.95
2019-01-11T03:43:42.282Z,101115.72
2019-01-11T03:45:20.187Z,101111.06
2019-01-11T03:46:56.250Z,101110.82
2019-01-11T03:48:32.326Z,101105.11
2019-01-11T03:50:09.739Z,101111.30
2019-01-11T03:51:45.770Z,101102.88
2019-01-11T03:53:21.804Z,101110.34
2019-01-11T03:54:57.894Z,101107.93
2019-01-11T03:56:33.921Z,101107.09
2019-01-11T03:58:10.203Z,101107.91
2019-01-11T03:59:46.283Z,101103.89
2019-01-11T04:01:22.329Z,101104.26
2019-01-11T04:02:58.371Z,101103.42
2019-01-11T04:04:34.678Z,101106.08
2019-01-11T04:06:10.695Z,101100.78
2019-01-11T04:07:47.226Z,101096.30
2019-01-11T04:09:23.176Z,101098.02
2019-01-11T04:10:59.592Z,101100.50
2019-01-11T04:12:35.618Z,101094.49
2019-01-11T04:14:11.671Z,101100.27
2019-01-11T04:15:47.734Z,101089.47
2019-01-11T04:17:23.713Z,101090.22
2019-01-11T04:19:05.916Z,101089.58
2019-01-11T04:20:42.156Z,101092.06
2019-01-11T04:22:31.768Z,101092.48
2019-01-11T04:24:07.812Z,101087.06
2019-01-11T04:25:45.594Z,101087.20
2019-01-11T04:27:21.659Z,101083.38
2019-01-11T04:28:57.746Z,101083.00
2019-01-11T04:30:33.772Z,101076.75
2019-01-11T04:32:09.812Z,101074.53
2019-01-11T04:33:45.866Z,101082.01
2019-01-11T04:35:22.004Z,101078.17
2019-01-11T04:36:58.038Z,101076.55
2019-01-11T04:38:34.021Z,101072.14
2019-01-11T04:40:10.981Z,101077.40
2019-01-11T04:41:47.023Z,101080.87
2019-01-11T04:43:22.980Z,101077.34
2019-01-11T04:44:59.061Z,101077.72
2019-01-11T04:46:35.016Z,101074.34
2019-01-11T04:48:11.092Z,101072.98
2019-01-11T04:49:47.185Z,101069.45
2019-01-11T04:51:23.198Z,101065.68
2019-01-11T04:52:59.259Z,101064.67
2019-01-11T04:54:35.206Z,101052.17
2019-01-11T04:56:11.293Z,101061.58
2019-01-11T04:57:47.331Z,101059.90
2019-01-11T04:59:23.328Z,101060.39
2019-01-11T05:00:59.426Z,101053.30
2019-01-11T05:02:35.459Z,101056.75
2019-01-11T05:04:11.561Z,101059.03
2019-01-11T05:05:47.584Z,101058.11
2019-01-11T05:07:23.618Z,101062.05
2019-01-11T05:09:02.682Z,101058.81
2019-01-11T05:10:38.961Z,101057.44
2019-01-11T05:12:15.001Z,101052.42
2019-01-11T05:13:54.426Z,101047.77
2019-01-11T05:15:30.448Z,101044.52
2019-01-11T05:17:06.514Z,101038.00
2019-01-11T05:18:42.575Z,101038.09
2019-01-11T05:20:19.237Z,101035.55
2019-01-11T05:21:55.385Z,101034.41
2019-01-11T05:23:31.317Z,101033.90
2019-01-11T05:25:07.937Z,101032.47
2019-01-11T05:26:43.993Z,101035.12
2019-01-11T05:28:20.091Z,101032.93
2019-01-11T05:29:56.092Z,101030.88
2019-01-11T05:31:32.043Z,101032.34
2019-01-11T05:33:08.106Z,101032.20
2019-01-11T05:34:44.143Z,101028.27
2019-01-11T05:36:20.235Z,101036.01
2019-01-11T05:37:56.358Z,101026.09
2019-01-11T05:39:32.417Z,101028.17
2019-01-11T05:41:08.422Z,101020.48
2019-01-11T05:42:44.357Z,101027.97
2019-01-11T05:44:20.678Z,101024.15
2019-01-11T05:45:56.755Z,101014.61
2019-01-11T05:47:32.763Z,101016.12
2019-01-11T05:49:08.876Z,101015.30
2019-01-11T05:50:44.816Z,101013.23
2019-01-11T05:52:20.843Z,101008.17
2019-01-11T05:53:56.882Z,101007.38
2019-01-11T05:55:52.849Z,101008.21
2019-01-11T05:57:28.868Z,101014.09
2019-01-11T05:59:09.215Z,101015.66
2019-01-11T06:00:45.269Z,101018.19
2019-01-11T06:02:21.345Z,101009.70
2019-01-11T06:03:58.246Z,101008.17
2019-01-11T06:05:34.258Z,101012.20
2019-01-11T06:07:29.133Z,101007.48
2019-01-11T06:09:06.667Z,101007.41
2019-01-11T06:10:42.796Z,101003.56
2019-01-11T06:12:18.892Z,101004.46
2019-01-11T06:13:54.874Z,101002.00
2019-01-11T06:15:30.949Z,100992.70
2019-01-11T06:17:07.204Z,101000.83
2019-01-11T06:18:43.221Z,100989.14
2019-01-11T06:20:20.340Z,100985.70
2019-01-11T06:21:56.438Z,100986.47
2019-01-11T06:23:32.376Z,100991.98
2019-01-11T06:25:08.988Z,100982.76
2019-01-11T06:26:45.054Z,100987.62
2019-01-11T06:28:21.105Z,100985.44
2019-01-11T06:29:57.120Z,100991.97
2019-01-11T06:31:33.110Z,100994.52
2019-01-11T06:33:09.045Z,100996.16
2019-01-11T06:34:45.117Z,100990.72
2019-01-11T06:36:21.079Z,100984.44
2019-01-11T06:37:57.272Z,100982.56
2019-01-11T06:39:33.300Z,100984.91
2019-01-11T06:41:09.260Z,100987.16
2019-01-11T06:42:45.303Z,100988.30
2019-01-11T06:44:21.295Z,100984.78
2019-01-11T06:45:57.277Z,100986.37
2019-01-11T06:47:33.291Z,100980.94
2019-01-11T06:49:09.422Z,100976.31
2019-01-11T06:50:45.447Z,100971.64
2019-01-11T06:52:21.525Z,100977.77
2019-01-11T06:53:57.547Z,100970.61
2019-01-11T06:55:33.559Z,100979.65
2019-01-11T06:57:09.612Z,100975.83
2019-01-11T06:58:45.782Z,100975.55
2019-01-11T07:00:21.886Z,100971.20
2019-01-11T07:01:57.973Z,100964.42
2019-01-11T07:03:33.982Z,100967.32
2019-01-11T07:05:11.317Z,100961.92
2019-01-11T07:06:47.346Z,100965.69
2019-01-11T07:08:23.365Z,100955.91
2019-01-11T07:09:59.423Z,100961.61
2019-01-11T07:11:35.513Z,100958.41
2019-01-11T07:13:11.506Z,100956.63
2019-01-11T07:14:47.508Z,100955.26
2019-01-11T07:16:23.583Z,100959.02
2019-01-11T07:17:59.651Z,100962.06
2019-01-11T07:19:35.728Z,100961.75
2019-01-11T07:21:11.779Z,100959.44
2019-01-11T07:22:47.784Z,100957.11
2019-01-11T07:24:23.898Z,100953.55
2019-01-11T07:25:59.934Z,100957.11
2019-01-11T07:27:51.010Z,100950.96
2019-01-11T07:29:27.036Z,100953.66
2019-01-11T07:31:11.868Z,100950.81
2019-01-11T07:32:47.938Z,100957.47
2019-01-11T07:34:23.985Z,100955.80
2019-01-11T07:36:28.092Z,100952.30
2019-01-11T07:38:04.067Z,100954.73
2019-01-11T07:39:40.107Z,100947.84
2019-01-11T07:41:16.141Z,100947.98
2019-01-11T07:42:52.248Z,100946.46
2019-01-11T07:44:28.361Z,100944.34
2019-01-11T07:46:04.397Z,100941.34
2019-01-11T07:47:40.431Z,100943.27
2019-01-11T07:49:22.996Z,100937.27
2019-01-11T07:50:54.204Z,100939.45
2019-01-11T07:52:30.407Z,100943.70
2019-01-11T07:54:06.876Z,100941.59
2019-01-11T07:55:42.974Z,100940.92
2019-01-11T07:57:18.988Z,100943.72
2019-01-11T07:58:54.995Z,100942.97
2019-01-11T08:00:31.077Z,100946.17
2019-01-11T08:02:07.436Z,100942.20
2019-01-11T08:03:43.482Z,100938.61
2019-01-11T08:05:19.532Z,100930.88
2019-01-11T08:06:55.683Z,100932.32
2019-01-11T08:08:31.639Z,100932.31
2019-01-11T08:10:08.368Z,100928.41
2019-01-11T08:11:44.402Z,100935.02
2019-01-11T08:13:20.430Z,100936.08
2019-01-11T08:14:56.514Z,100930.89
2019-01-11T08:16:32.447Z,100925.64
2019-01-11T08:18:08.463Z,100926.90
2019-01-11T08:19:44.534Z,100932.38
2019-01-11T08:21:20.643Z,100923.62
2019-01-11T08:22:56.651Z,100931.25
2019-01-11T08:24:32.598Z,100930.17
2019-01-11T08:26:08.633Z,100923.73
2019-01-11T08:27:45.308Z,100923.81
2019-01-11T08:29:21.322Z,100920.36
2019-01-11T08:30:57.348Z,100921.85
2019-01-11T08:32:33.289Z,100925.20
2019-01-11T08:34:09.377Z,100919.66
2019-01-11T08:35:45.418Z,100915.44
2019-01-11T08:37:22.822Z,100906.27
2019-01-11T08:38:58.846Z,100915.98
2019-01-11T08:40:34.976Z,100915.98
2019-01-11T08:42:11.006Z,100913.91
2019-01-11T08:43:47.037Z,100912.79
2019-01-11T08:45:23.064Z,100911.36
2019-01-11T08:46:59.153Z,100910.26
2019-01-11T08:48:35.184Z,100911.20
2019-01-11T08:50:18.435Z,100914.79
2019-01-11T08:51:54.469Z,100912.84
2019-01-11T08:53:30.559Z,100907.59
2019-01-11T08:55:07.224Z,100902.64
2019-01-11T08:56:43.233Z,100906.16
2019-01-11T08:58:19.253Z,100910.19
2019-01-11T08:59:55.250Z,100901.87
2019-01-11T09:01:31.298Z,100896.66
2019-01-11T09:03:07.502Z,100905.79
2019-01-11T09:04:43.623Z,100909.36
2019-01-11T09:06:20.689Z,100894.16
2019-01-11T09:07:56.745Z,100899.83
2019-01-11T09:09:32.792Z,100895.81
2019-01-11T09:11:08.844Z,100891.45
2019-01-11T09:12:44.873Z,100886.03
2019-01-11T09:14:39.681Z,100885.07
2019-01-11T09:16:20.613Z,100883.28
2019-01-11T09:18:04.380Z,100877.33
2019-01-11T09:19:40.418Z,100875.38
2019-01-11T09:21:16.409Z,100877.87
2019-01-11T09:22:52.482Z,100868.88
2019-01-11T09:24:28.509Z,100878.30
2019-01-11T09:26:04.623Z,100870.91
2019-01-11T09:27:40.671Z,100870.44
2019-01-11T09:29:16.768Z,100873.19
2019-01-11T09:30:52.809Z,100864.66
2019-01-11T09:32:28.907Z,100865.70
2019-01-11T09:34:05.032Z,100869.80
2019-01-11T09:35:41.053Z,100859.72
2019-01-11T09:37:17.000Z,100859.12
2019-01-11T09:38:53.094Z,100850.37
2019-01-11T09:40:29.155Z,100849.80
2019-01-11T09:42:05.177Z,100846.14
2019-01-11T09:43:41.224Z,100848.23
2019-01-11T09:45:17.312Z,100843.59
2019-01-11T09:46:53.357Z,100845.27
2019-01-11T09:48:29.400Z,100836.99
2019-01-11T09:50:06.915Z,100840.33
2019-01-11T09:51:43.999Z,100831.98
2019-01-11T09:53:19.986Z,100830.18
2019-01-11T09:54:56.073Z,100835.34
2019-01-11T09:56:32.146Z,100836.11
2019-01-11T09:58:08.273Z,100841.73
2019-01-11T09:59:44.233Z,100838.89
2019-01-11T10:01:20.271Z,100841.62
2019-01-11T10:03:02.582Z,100838.57
2019-01-11T10:04:40.307Z,100830.47
2019-01-11T10:06:16.397Z,100836.28
2019-01-11T10:07:52.466Z,100828.52
2019-01-11T10:09:28.523Z,100821.66
2019-01-11T10:11:04.648Z,100821.28
2019-01-11T10:12:40.664Z,100816.92
2019-01-11T10:14:16.833Z,100824.53
2019-01-11T10:15:52.893Z,100825.12
2019-01-11T10:17:29.004Z,100822.63
2019-01-11T10:19:05.083Z,100819.59
2019-01-11T10:20:41.105Z,100824.50
2019-01-11T10:22:17.106Z,100820.53
2019-01-11T10:23:53.128Z,100818.64
2019-01-11T10:25:29.076Z,100818.50
2019-01-11T10:27:05.155Z,100813.43
2019-01-11T10:28:41.074Z,100809.14
2019-01-11T10:30:19.598Z,100811.52
2019-01-11T10:31:55.527Z,100804.80
2019-01-11T10:33:36.216Z,100806.52
2019-01-11T10:35:10.141Z,100809.70
2019-01-11T10:36:46.002Z,100797.56
2019-01-11T10:38:21.877Z,100800.55
2019-01-11T10:39:57.832Z,100798.67
2019-01-11T10:41:33.943Z,100805.44
2019-01-11T10:43:09.790Z,100793.05
2019-01-11T10:44:45.672Z,100792.80
2019-01-11T10:46:35.846Z,100790.55
2019-01-11T10:48:11.894Z,100788.84
2019-01-11T10:49:47.773Z,100781.27
2019-01-11T10:51:28.145Z,100779.14
2019-01-11T10:53:01.277Z,100775.80
2019-01-11T10:54:40.385Z,100776.48
2019-01-11T10:56:16.230Z,100772.23
2019-01-11T10:57:52.127Z,100769.82
2019-01-11T10:59:27.994Z,100763.39
2019-01-11T11:01:03.937Z,100771.07
2019-01-11T11:02:39.806Z,100762.06
2019-01-11T11:04:15.672Z,100760.50
2019-01-11T11:05:51.697Z,100759.67
2019-01-11T11:07:27.569Z,100752.17
2019-01-11T11:09:04.557Z,100745.59
2019-01-11T11:10:40.428Z,100750.17
2019-01-11T11:12:16.366Z,100741.84
2019-01-11T11:13:52.211Z,100746.16
2019-01-11T11:15:28.111Z,100733.27
2019-01-11T11:17:03.969Z,100738.53
2019-01-11T11:18:39.985Z,100729.42
2019-01-11T11:20:18.865Z,100730.18
2019-01-11T11:21:54.741Z,100721.13
2019-01-11T11:23:30.675Z,100725.75
2019-01-11T11:25:10.586Z,100717.59
2019-01-11T11:26:46.447Z,100705.06
2019-01-11T11:28:22.298Z,100697.56
2019-01-11T11:29:58.239Z,100699.44
2019-01-11T11:31:34.162Z,100702.14
2019-01-11T11:33:10.221Z,100699.39
2019-01-11T11:34:47.563Z,100694.22
2019-01-11T11:36:23.509Z,100702.29
2019-01-11T11:37:59.603Z,100700.97
2019-01-11T11:39:35.465Z,100701.87
2019-01-11T11:41:11.397Z,100693.12
2019-01-11T11:42:47.238Z,100684.84
2019-01-11T11:44:23.119Z,100678.11
2019-01-11T11:45:59.052Z,100678.27
2019-01-11T11:47:34.974Z,100672.75
2019-01-11T11:49:11.007Z,100677.41
2019-01-11T11:50:47.024Z,100678.88
2019-01-11T11:52:22.946Z,100669.58
2019-01-11T11:53:59.044Z,100664.16
2019-01-11T11:55:34.968Z,100667.55
2019-01-11T11:57:10.989Z,100661.63
2019-01-11T11:58:46.882Z,100658.11
2019-01-11T12:00:26.648Z,100646.80
2019-01-11T12:02:02.809Z,100650.68
2019-01-11T12:03:38.829Z,100648.00
2019-01-11T12:05:15.029Z,100641.47
2019-01-11T12:06:50.898Z,100638.98
2019-01-11T12:08:26.834Z,100629.17
2019-01-11T12:10:02.824Z,100631.34
2019-01-11T12:11:39.242Z,100636.48
2019-01-11T12:13:15.113Z,100623.44
2019-01-11T12:14:51.037Z,100620.91
2019-01-11T12:16:26.903Z,100617.30
2019-01-11T12:18:02.750Z,100617.56
2019-01-11T12:19:38.676Z,100611.51
2019-01-11T12:21:14.620Z,100600.30
2019-01-11T12:22:52.529Z,100590.64
2019-01-11T12:24:28.380Z,100591.27
2019-01-11T12:26:04.554Z,100590.96
2019-01-11T12:27:40.506Z,100587.73
2019-01-11T12:29:16.556Z,100578.38
2019-01-11T12:30:52.436Z,100568.64
2019-01-11T12:32:28.379Z,100575.66
2019-01-11T12:34:04.305Z,100576.13
2019-01-11T12:35:40.189Z,100572.41
2019-01-11T12:37:16.043Z,100570.45
2019-01-11T12:38:51.932Z,100569.86
2019-01-11T12:40:27.879Z,100555.83
2019-01-11T12:42:03.842Z,100563.30
2019-01-11T12:43:39.716Z,100559.77
2019-01-11T12:45:16.457Z,100550.94
2019-01-11T12:46:52.402Z,100550.66
2019-01-11T12:48:28.244Z,100547.25
2019-01-11T12:50:05.450Z,100545.00
2019-01-11T12:51:41.300Z,100546.69
2019-01-11T12:53:17.279Z,100546.94
2019-01-11T12:54:53.182Z,100541.19
2019-01-11T12:56:29.176Z,100543.35
2019-01-11T12:58:05.161Z,100549.17
2019-01-11T12:59:41.044Z,100544.17
2019-01-11T13:01:18.235Z,100542.48
2019-01-11T13:02:54.123Z,100539.87
2019-01-11T13:04:30.287Z,100535.50
2019-01-11T13:06:06.606Z,100540.24
2019-01-11T13:07:42.469Z,100538.86
2019-01-11T13:09:18.538Z,100530.31
2019-01-11T13:10:54.560Z,100530.93
2019-01-11T13:12:30.452Z,100522.36
2019-01-11T13:14:06.544Z,100516.59
2019-01-11T13:15:42.373Z,100515.94
2019-01-11T13:17:18.323Z,100496.84
2019-01-11T13:18:54.182Z,100505.09
2019-01-11T13:20:30.706Z,100505.73
2019-01-11T13:22:07.315Z,100506.46
2019-01-11T13:23:43.418Z,100502.02
2019-01-11T13:25:19.391Z,100507.03
2019-01-11T13:26:57.276Z,100502.14
2019-01-11T13:28:33.253Z,100502.25
2019-01-11T13:30:20.865Z,100501.55
2019-01-11T13:31:57.047Z,100505.92
2019-01-11T13:33:33.215Z,100494.84
2019-01-11T13:35:09.579Z,100495.63
2019-01-11T13:36:45.987Z,100499.66
2019-01-11T13:38:22.242Z,100492.80
2019-01-11T13:39:58.236Z,100492.78
2019-01-11T13:41:34.310Z,100486.53
2019-01-11T13:43:10.445Z,100479.33
2019-01-11T13:44:46.601Z,100480.05
2019-01-11T13:46:22.686Z,100483.98
2019-01-11T13:47:58.666Z,100482.59
2019-01-11T13:49:34.805Z,100482.36
2019-01-11T13:51:10.849Z,100477.83
2019-01-11T13:52:46.923Z,100483.64
2019-01-11T13:54:22.836Z,100481.59
2019-01-11T13:55:58.827Z,100469.73
2019-01-11T13:57:34.755Z,100476.53
2019-01-11T13:59:10.630Z,100473.05
2019-01-11T14:00:46.525Z,100473.98
2019-01-11T14:02:22.511Z,100477.83
2019-01-11T14:03:58.443Z,100471.27
2019-01-11T14:05:34.403Z,100470.47
2019-01-11T14:07:10.496Z,100464.63
2019-01-11T14:08:46.383Z,100462.95
2019-01-11T14:10:22.352Z,100472.53
2019-01-11T14:11:58.329Z,100466.91
2019-01-11T14:13:35.941Z,100460.98
2019-01-11T14:15:12.315Z,100463.80
2019-01-11T14:16:48.295Z,100458.19
2019-01-11T14:18:24.271Z,100463.44
2019-01-11T14:20:00.234Z,100463.26
2019-01-11T14:21:36.159Z,100458.28
2019-01-11T14:23:12.172Z,100465.70
2019-01-11T14:24:48.287Z,100463.17
2019-01-11T14:26:24.274Z,100453.20
2019-01-11T14:28:00.229Z,100451.58
2019-01-11T14:29:36.208Z,100441.75
2019-01-11T14:31:12.230Z,100445.66
2019-01-11T14:32:48.368Z,100431.64
2019-01-11T14:34:24.375Z,100430.23
2019-01-11T14:36:00.409Z,100440.81
2019-01-11T14:37:36.353Z,100441.08
2019-01-11T14:39:12.348Z,100446.80
2019-01-11T14:40:48.285Z,100448.95
2019-01-11T14:42:24.304Z,100444.81
2019-01-11T14:44:00.280Z,100449.00
2019-01-11T14:45:36.404Z,100446.31
2019-01-11T14:47:13.564Z,100451.77
2019-01-11T14:48:49.756Z,100453.86
2019-01-11T14:50:25.894Z,100449.80
2019-01-11T14:52:01.976Z,100446.27
2019-01-11T14:53:38.125Z,100446.45
2019-01-11T14:55:14.436Z,100440.19
2019-01-11T14:56:50.590Z,100439.78
2019-01-11T14:58:28.865Z,100441.78
2019-01-11T15:00:06.193Z,100434.02
2019-01-11T15:01:42.339Z,100427.52
2019-01-11T15:03:18.357Z,100413.95
2019-01-11T15:04:54.636Z,100420.67
2019-01-11T15:06:30.905Z,100419.45
2019-01-11T15:08:07.293Z,100419.19
2019-01-11T15:09:43.415Z,100419.08
2019-01-11T15:11:19.465Z,100402.06
2019-01-11T15:12:55.562Z,100406.64
2019-01-11T15:14:31.892Z,100399.05
2019-01-11T15:16:08.078Z,100401.38
2019-01-11T15:17:44.396Z,100395.45
2019-01-11T15:19:20.515Z,100392.53
2019-01-11T15:20:56.610Z,100398.30
2019-01-11T15:22:32.677Z,100384.66
2019-01-11T15:24:09.121Z,100381.30
2019-01-11T15:25:45.148Z,100376.47
2019-01-11T15:27:21.067Z,100377.35
2019-01-11T15:28:56.944Z,100378.06
2019-01-11T15:30:32.887Z,100376.69
2019-01-11T15:32:09.971Z,100380.02
2019-01-11T15:33:45.967Z,100377.95
2019-01-11T15:35:21.894Z,100378.92
2019-01-11T15:36:57.904Z,100388.06
2019-01-11T15:38:33.923Z,100380.91
2019-01-11T15:40:16.731Z,100382.53
2019-01-11T15:41:52.796Z,100369.14
2019-01-11T15:43:28.726Z,100369.44
2019-01-11T15:45:05.101Z,100364.59
2019-01-11T15:46:41.058Z,100368.87
2019-01-11T15:48:39.101Z,100367.23
2019-01-11T15:50:37.000Z,100365.77
2019-01-11T15:52:13.070Z,100362.41
2019-01-11T15:53:49.110Z,100366.34
2019-01-11T15:55:25.136Z,100368.27
2019-01-11T15:57:01.195Z,100366.08
2019-01-11T15:58:37.110Z,100358.03
2019-01-11T16:00:20.842Z,100358.71
2019-01-11T16:01:57.166Z,100359.40
2019-01-11T16:03:33.186Z,100358.48
2019-01-11T16:05:09.435Z,100357.48
2019-01-11T16:06:45.626Z,100354.86
2019-01-11T16:08:21.536Z,100352.47
2019-01-11T16:10:20.907Z,100348.75
2019-01-11T16:12:08.289Z,100337.88
2019-01-11T16:14:33.149Z,100349.23
2019-01-11T16:16:43.390Z,100342.69
2019-01-11T16:18:27.650Z,100344.72
2019-01-11T16:20:03.664Z,100337.95
2019-01-11T16:21:39.605Z,100329.33
2019-01-11T16:23:15.588Z,100336.14
2019-01-11T16:24:51.548Z,100342.60
2019-01-11T16:26:27.374Z,100338.84
2019-01-11T16:28:03.381Z,100336.77
2019-01-11T16:29:39.421Z,100337.65
2019-01-11T16:31:15.504Z,100348.00
2019-01-11T16:32:51.421Z,100341.70
2019-01-11T16:34:27.339Z,100343.32
2019-01-11T16:36:03.445Z,100339.70
2019-01-11T16:37:39.541Z,100336.52
2019-01-11T16:39:15.572Z,100337.23
2019-01-11T16:40:51.590Z,100340.50
2019-01-11T16:42:27.602Z,100321.61
2019-01-11T16:44:03.732Z,100315.53
2019-01-11T16:45:39.788Z,100323.12
2019-01-11T16:47:18.501Z,100325.92
2019-01-11T16:48:54.441Z,100330.61
2019-01-11T16:50:30.533Z,100326.73
2019-01-11T16:52:06.593Z,100336.09
2019-01-11T16:53:42.490Z,100323.88
2019-01-11T16:55:18.512Z,100325.24
2019-01-11T16:56:54.480Z,100325.20
2019-01-11T16:58:30.352Z,100323.43
2019-01-11T17:00:10.838Z,100316.84
2019-01-11T17:01:46.811Z,100313.05
2019-01-11T17:03:22.737Z,100319.84
2019-01-11T17:04:58.645Z,100322.00
2019-01-11T17:06:34.719Z,100321.61
2019-01-11T17:08:10.582Z,100319.95
2019-01-11T17:09:46.487Z,100319.71
2019-01-11T17:11:22.337Z,100317.29
2019-01-11T17:12:58.225Z,100324.11
2019-01-11T17:14:34.088Z,100321.99
2019-01-11T17:16:10.013Z,100327.10
2019-01-11T17:17:45.869Z,100319.00
2019-01-11T17:19:21.743Z,100316.88
2019-01-11T17:20:57.652Z,100315.50
2019-01-11T17:22:33.510Z,100320.73
2019-01-11T17:24:09.378Z,100313.12
2019-01-11T17:25:45.264Z,100302.90
2019-01-11T17:27:21.208Z,100303.38
2019-01-11T17:28:57.150Z,100316.16
2019-01-11T17:30:33.195Z,100315.30
2019-01-11T17:32:09.088Z,100318.45
2019-01-11T17:33:45.028Z,100315.27
2019-01-11T17:35:20.919Z,100318.44
2019-01-11T17:38:38.404Z,100307.08
2019-01-11T17:40:16.432Z,100291.57
2019-01-11T17:41:52.310Z,100305.52
2019-01-11T17:43:28.573Z,100309.33
2019-01-11T17:45:05.318Z,100292.97
2019-01-11T17:46:41.195Z,100300.19
2019-01-11T17:48:17.083Z,100299.55
2019-01-11T17:49:53.295Z,100296.07
2019-01-11T17:51:29.163Z,100295.03
2019-01-11T17:53:05.108Z,100299.05
2019-01-11T17:54:41.019Z,100293.75
2019-01-11T17:56:16.931Z,100294.98
2019-01-11T17:57:52.810Z,100295.03
2019-01-11T17:59:28.764Z,100299.91
2019-01-11T18:01:04.831Z,100297.59
2019-01-11T18:02:41.091Z,100298.31
2019-01-11T18:04:16.990Z,100304.30
2019-01-11T18:05:55.724Z,100299.34
2019-01-11T18:07:31.591Z,100298.20
2019-01-11T18:09:09.811Z,100303.42
2019-01-11T18:10:45.695Z,100298.30
2019-01-11T18:12:21.571Z,100289.19
2019-01-11T18:13:59.468Z,100294.80
2019-01-11T18:15:35.129Z,100289.95
2019-01-11T18:17:10.999Z,100292.91
2019-01-11T18:18:47.920Z,100293.67
2019-01-11T18:20:27.355Z,100289.11
2019-01-11T18:22:03.707Z,100286.48
2019-01-11T18:23:39.575Z,100287.38
2019-01-11T18:25:15.720Z,100287.46